ADDS METAR Data INFO
IDs: Format: Raw Decoded Include TAF

Data at: 0508 UTC 23 May 2017

KAMA 230453Z AUTO 00000KT 10SM BKN100 12/11 A3007 RMK AO2 SLP150 T01220106
KAMA 230353Z 00000KT 10SM CLR 11/09 A3006 RMK AO2 SLP150 T01060094
KAMA 230253Z 04005KT 10SM CLR 12/11 A3004 RMK AO2 SLP147 T01220106 53013
KAMA 230153Z 04008KT 10SM CLR 14/11 A3002 RMK AO2 SLP140 T01440111
KAMA 230053Z 02013KT 10SM CLR 18/11 A3000 RMK AO2 SLP126 T01830111
KAMA 222353Z 35009KT 10SM CLR 19/11 A3000 RMK AO2 SLP128 T01890111 10217 20167 56014
KAMA 222253Z 03007KT 10SM CLR 21/12 A3001 RMK AO2 SLP129 T02110117
KAMA 222153Z 01010KT 10SM FEW031 BKN050 20/10 A3003 RMK AO2 SLP137 T02000100
KAMA 222053Z 33009KT 10SM BKN041 19/12 A3005 RMK AO2 SLP146 T01890122 56010
KAMA 221953Z 36012KT 10SM OVC035 18/13 A3006 RMK AO2 WSHFT 1926 SLP148 T01780133
KAMA 221946Z 36013KT 10SM OVC033 17/13 A3006 RMK AO2 WSHFT 1926 T01720128
KAMA 221853Z 23007KT 10SM OVC035 19/11 A3007 RMK AO2 SLP146 T01940111
KAMA 221753Z 23010KT 10SM FEW037 OVC070 19/11 A3008 RMK AO2 SLP149 60000 T01940106 10200 20122 58013
KAMA 221653Z 19009KT 10SM OVC041 18/10 A3010 RMK AO2 SLP157 T01830100
KAMA 221553Z 16013G19KT 10SM FEW025 BKN035 18/09 A3011 RMK AO2 SLP160 T01780094
KAMA 221517Z 16012KT 10SM FEW024 SCT028 BKN038 16/09 A3012 RMK AO2 T01610094
KAMA 221503Z 15010KT 10SM BKN028 OVC037 16/09 A3012 RMK AO2 T01560089
KAMA 221453Z 14011KT 10SM BKN030 OVC037 16/09 A3012 RMK AO2 SLP167 60000 T01560094 55006
KAMA 221434Z 12010KT 10SM SCT023 OVC033 16/10 A3013 RMK AO2 T01560100
KAMA 221353Z 11012KT 10SM OVC024 13/10 A3011 RMK AO2 SLP164 T01330100
KAMA 221253Z 09009KT 10SM OVC024 12/10 A3013 RMK AO2 RAB1157E06 SLP170 P0000 T01220100
KAMA 221231Z 08008KT 10SM OVC028 12/10 A3014 RMK AO2 RAB1157E06 P0000 T01220100
KAMA 221153Z 10008KT 10SM OVC034 12/09 A3015 RMK AO2 RAB27E48 SLP171 P0000 60000 T01220094 10156 20106 50010
KAMA 221053Z 11006KT 10SM OVC036 12/08 A3016 RMK AO2 RAB37E47 SLP176 P0000 T01220083
KAMA 220953Z AUTO 16006KT 10SM BKN110 11/08 A3014 RMK AO2 LTG DSNT N SLP170 T01110078
KAMA 220853Z AUTO 13009KT 10SM CLR 11/07 A3011 RMK AO2 SLP162 T01110072 58019
KAMA 220753Z AUTO 12006KT 10SM BKN031 13/07 A3015 RMK AO2 SLP171 T01280067
KAMA 220653Z AUTO 12012KT 10SM OVC037 15/06 A3015 RMK AO2 LTG DSNT SE SLP169 T01500056
KAMA 220553Z AUTO 11010KT 10SM SCT045 BKN055 16/04 A3018 RMK AO2 SLP179 T01560044 10228 20150 402560056 50016
KAMA 220453Z AUTO VRB05KT 10SM BKN055 OVC120 16/03 A3020 RMK AO2 LTG DSNT NW SLP186 T01610028
KAMA 220353Z 15015G24KT 10SM CLR 17/04 A3013 RMK AO2 SLP166 T01670039
KAMA 220253Z 15014KT 10SM CLR 17/04 A3012 RMK AO2 SLP166 T01720039 50016
KAMA 220153Z 16017G23KT 10SM BKN120 19/03 A3013 RMK AO2 PK WND 15026/0054 SLP168 T01890033
KAMA 220053Z 15019G27KT 10SM CLR 21/02 A3010 RMK AO2 PK WND 15027/0019 SLP161 T02060022
KAMA 212353Z 14024G27KT 10SM CLR 23/02 A3007 RMK AO2 PK WND 15029/2323 SLP155 T02280017 10256 20222 56016
KAMA 212253Z 14020G25KT 10SM CLR 24/03 A3008 RMK AO2 PK WND 14028/2232 SLP156 T02440028
KAMA 212153Z 15014G23KT 10SM SCT100 BKN120 25/03 A3011 RMK AO2 PK WND 16028/2138 SLP164 T02500033
KAMA 212053Z 15014G25KT 10SM FEW085 23/03 A3012 RMK AO2 PK WND 16028/2036 SLP170 T02280033 56020
KAMA 211953Z 15018G26KT 10SM CLR 24/05 A3014 RMK AO2 PK WND 15026/1951 SLP173 T02440050
KAMA 211853Z 19018G24KT 10SM CLR 24/06 A3016 RMK AO2 PK WND 18028/1835 SLP179 T02390056
KAMA 211753Z 17015G22KT 10SM CLR 22/06 A3019 RMK AO2 SLP190 T02220061 10222 20061 58010


Page loaded:  05:08 UTC  |   10:08 PM Pacific  |   11:08 PM Mountain  |   12:08 AM Central  |   01:08 AM Eastern

 

ADVISORIES

FORECASTS

FORECASTS

OBSERVATIONS

USER TOOLS

ABOUT US